PDT,Max TemperatureF,Mean TemperatureF,Min TemperatureF,Max Dew PointF,MeanDew PointF,Min DewpointF,Max Humidity, Mean Humidity, Min Humidity, Max Sea Level PressureIn, Mean Sea Level PressureIn, Min Sea Level PressureIn, Max VisibilityMiles, Mean VisibilityMiles, Min VisibilityMiles, Max Wind SpeedMPH, Mean Wind SpeedMPH, Max Gust SpeedMPH,PrecipitationIn, CloudCover, Events, WindDirDegrees
2013-7-1,64,58,53,57,55,54,100,92,77,29.92,29.88,29.85,10,6,1,14,7,,0.00,5,,316
2013-7-2,64,60,55,57,56,55,100,94,77,29.98,29.94,29.88,9,3,0,12,6,,0.00,7,Fog,180
2013-7-3,68,62,55,59,57,55,100,92,73,29.96,29.89,29.82,10,7,1,9,5,,0.00,4,,209
2013-7-4,64,60,55,59,56,50,100,86,64,29.85,29.80,29.77,10,6,0,14,7,21,0.00,4,Fog,192
2013-7-5,57,56,55,54,52,50,94,87,82,29.86,29.83,29.81,5,3,2,17,8,22,0.00,4,,305
2013-7-6,59,56,53,54,53,50,100,89,82,29.87,29.83,29.81,7,4,1,13,7,16,0.00,7,,201
2013-7-7,60,58,55,54,53,50,94,86,77,29.90,29.86,29.82,10,8,5,13,10,18,0.00,8,,186
2013-7-8,59,57,55,55,53,50,94,88,82,30.01,29.96,29.90,10,9,2,10,8,16,0.00,7,,175
2013-7-9,59,56,53,55,54,54,100,97,82,30.07,30.03,29.99,10,3,0,15,6,20,0.00,7,Fog,313
2013-7-10,59,55,51,55,53,50,100,94,82,30.03,30.00,29.97,10,6,1,8,4,,0.00,7,,255
2013-7-11,57,54,51,52,51,50,100,89,82,30.00,29.98,29.96,10,6,2,8,3,,0.00,8,,261
2013-7-12,57,52,48,54,51,46,100,87,82,30.00,29.97,29.94,8,6,2,10,5,,0.00,7,,232
2013-7-13,60,54,48,54,52,46,100,90,77,30.02,29.98,29.94,7,4,2,10,6,,0.00,6,,155
2013-7-14,59,56,53,54,52,50,100,91,82,30.05,30.01,29.96,10,6,3,10,4,,0.00,7,,327
2013-7-15,59,54,50,55,52,50,100,90,82,29.97,29.94,29.90,10,7,2,9,5,,0.00,8,,218
2013-7-16,62,58,53,57,55,52,100,91,77,30.07,29.99,29.90,10,7,2,13,6,,0.00,8,,254
2013-7-17,60,56,53,55,54,52,100,91,82,30.14,30.10,30.06,10,9,5,14,7,,0.00,8,,324
2013-7-18,57,55,53,54,53,52,100,95,88,30.11,30.06,30.02,9,5,1,13,5,,0.00,8,,313
2013-7-19,57,55,53,54,53,52,100,94,88,30.01,29.96,29.91,5,4,1,10,2,,0.00,8,,288
2013-7-20,57,54,51,54,51,50,100,92,82,29.92,29.88,29.83,7,4,2,10,4,,0.00,8,,215
2013-7-21,59,55,51,54,53,50,100,95,82,29.93,29.86,29.82,10,6,2,12,8,,0.00,8,,175
2013-7-22,60,58,55,57,55,54,100,94,88,30.00,29.97,29.92,10,8,1,10,7,,0.00,6,,173
2013-7-23,64,58,53,57,55,54,100,93,77,30.05,30.02,29.98,10,7,0,8,4,,0.00,4,Fog,220
2013-7-24,62,58,53,57,55,54,100,94,77,30.03,30.00,29.96,10,5,0,10,4,,0.00,5,Fog,319
2013-7-25,60,56,51,55,54,52,100,95,82,30.08,30.03,29.98,10,5,0,8,3,,0.00,7,Fog,239
2013-7-26,60,56,53,55,54,54,100,95,82,30.14,30.09,30.06,10,6,2,9,4,,0.00,7,,205
2013-7-27,59,56,53,55,54,54,100,95,88,30.08,30.00,29.93,10,6,2,10,6,,0.00,8,,192
2013-7-28,59,56,53,55,54,54,100,93,82,29.93,29.90,29.88,8,4,2,10,7,,0.00,8,,199
2013-7-29,62,58,55,55,54,52,94,89,77,30.06,29.98,29.90,10,6,3,17,11,23,0.00,8,,195
2013-7-30,59,57,55,54,53,52,94,86,77,30.14,30.10,30.05,10,7,3,10,8,,0.00,8,,196
2013-7-31,59,55,51,54,53,50,100,90,82,30.15,30.11,30.09,10,6,3,9,5,,0.00,7,,260